sensor_id;sensor_type;location;lat;lon;timestamp;P1;durP1;ratioP1;P2;durP2;ratioP2
22849;SDS011;11591;44.792;10.358;2023-02-11T00:00:16;58.70;;;21.02;;
22849;SDS011;11591;44.792;10.358;2023-02-11T00:02:42;47.13;;;15.93;;
22849;SDS011;11591;44.792;10.358;2023-02-11T00:05:08;40.92;;;14.63;;
22849;SDS011;11591;44.792;10.358;2023-02-11T00:07:34;50.25;;;15.75;;
22849;SDS011;11591;44.792;10.358;2023-02-11T00:10:00;44.55;;;14.48;;
22849;SDS011;11591;44.792;10.358;2023-02-11T00:12:32;44.85;;;14.75;;
22849;SDS011;11591;44.792;10.358;2023-02-11T00:14:59;41.35;;;15.68;;
22849;SDS011;11591;44.792;10.358;2023-02-11T00:17:24;37.05;;;14.63;;
22849;SDS011;11591;44.792;10.358;2023-02-11T00:19:51;39.97;;;14.38;;
22849;SDS011;11591;44.792;10.358;2023-02-11T00:22:17;38.17;;;14.38;;
22849;SDS011;11591;44.792;10.358;2023-02-11T00:24:43;43.55;;;14.98;;
22849;SDS011;11591;44.792;10.358;2023-02-11T00:27:09;44.53;;;14.90;;
22849;SDS011;11591;44.792;10.358;2023-02-11T00:29:35;41.17;;;14.38;;
22849;SDS011;11591;44.792;10.358;2023-02-11T00:32:02;44.00;;;14.98;;
22849;SDS011;11591;44.792;10.358;2023-02-11T00:34:32;42.50;;;13.10;;
22849;SDS011;11591;44.792;10.358;2023-02-11T00:37:00;43.92;;;14.85;;
22849;SDS011;11591;44.792;10.358;2023-02-11T00:39:27;38.25;;;13.77;;
22849;SDS011;11591;44.792;10.358;2023-02-11T00:41:54;34.42;;;12.95;;
22849;SDS011;11591;44.792;10.358;2023-02-11T00:44:20;39.63;;;14.35;;
22849;SDS011;11591;44.792;10.358;2023-02-11T00:46:46;37.85;;;12.88;;
22849;SDS011;11591;44.792;10.358;2023-02-11T00:49:12;33.97;;;13.00;;
22849;SDS011;11591;44.792;10.358;2023-02-11T00:51:39;40.67;;;14.27;;
22849;SDS011;11591;44.792;10.358;2023-02-11T00:54:05;41.40;;;15.00;;
22849;SDS011;11591;44.792;10.358;2023-02-11T00:56:31;42.53;;;14.55;;
22849;SDS011;11591;44.792;10.358;2023-02-11T00:58:57;38.40;;;13.38;;
22849;SDS011;11591;44.792;10.358;2023-02-11T01:01:23;30.98;;;11.85;;
22849;SDS011;11591;44.792;10.358;2023-02-11T01:03:49;33.72;;;12.15;;
22849;SDS011;11591;44.792;10.358;2023-02-11T01:07:11;36.90;;;12.18;;
22849;SDS011;11591;44.792;10.358;2023-02-11T01:09:46;38.08;;;12.15;;
22849;SDS011;11591;44.792;10.358;2023-02-11T01:12:12;33.65;;;12.20;;
22849;SDS011;11591;44.792;10.358;2023-02-11T01:14:39;27.00;;;11.00;;
22849;SDS011;11591;44.792;10.358;2023-02-11T01:17:05;34.55;;;11.68;;
22849;SDS011;11591;44.792;10.358;2023-02-11T01:19:31;33.63;;;13.07;;
22849;SDS011;11591;44.792;10.358;2023-02-11T01:21:57;39.72;;;14.65;;
22849;SDS011;11591;44.792;10.358;2023-02-11T01:24:22;41.53;;;13.43;;
22849;SDS011;11591;44.792;10.358;2023-02-11T01:26:48;32.03;;;11.57;;
22849;SDS011;11591;44.792;10.358;2023-02-11T01:29:14;33.38;;;11.25;;
22849;SDS011;11591;44.792;10.358;2023-02-11T01:31:40;31.38;;;11.93;;
22849;SDS011;11591;44.792;10.358;2023-02-11T01:34:06;32.53;;;11.38;;
22849;SDS011;11591;44.792;10.358;2023-02-11T01:36:31;30.98;;;11.80;;
22849;SDS011;11591;44.792;10.358;2023-02-11T01:38:58;33.70;;;11.38;;
22849;SDS011;11591;44.792;10.358;2023-02-11T01:41:24;31.80;;;10.90;;
22849;SDS011;11591;44.792;10.358;2023-02-11T01:43:50;25.85;;;9.95;;
22849;SDS011;11591;44.792;10.358;2023-02-11T01:46:19;30.95;;;11.38;;
22849;SDS011;11591;44.792;10.358;2023-02-11T01:48:52;32.45;;;11.52;;
22849;SDS011;11591;44.792;10.358;2023-02-11T01:51:26;30.73;;;11.13;;
22849;SDS011;11591;44.792;10.358;2023-02-11T01:54:02;30.95;;;11.32;;
22849;SDS011;11591;44.792;10.358;2023-02-11T01:56:50;29.23;;;11.07;;
22849;SDS011;11591;44.792;10.358;2023-02-11T01:59:40;34.55;;;11.10;;
22849;SDS011;11591;44.792;10.358;2023-02-11T02:02:14;31.20;;;10.63;;
22849;SDS011;11591;44.792;10.358;2023-02-11T02:04:54;27.65;;;10.50;;
22849;SDS011;11591;44.792;10.358;2023-02-11T02:07:32;30.27;;;10.50;;
22849;SDS011;11591;44.792;10.358;2023-02-11T02:10:21;29.25;;;9.75;;
22849;SDS011;11591;44.792;10.358;2023-02-11T02:12:50;25.67;;;10.02;;
22849;SDS011;11591;44.792;10.358;2023-02-11T02:15:18;28.52;;;10.23;;
22849;SDS011;11591;44.792;10.358;2023-02-11T02:17:57;28.42;;;10.07;;
22849;SDS011;11591;44.792;10.358;2023-02-11T02:31:58;28.58;;;9.30;;
22849;SDS011;11591;44.792;10.358;2023-02-11T02:34:41;24.85;;;9.43;;
22849;SDS011;11591;44.792;10.358;2023-02-11T02:37:22;25.80;;;9.27;;
22849;SDS011;11591;44.792;10.358;2023-02-11T02:39:54;23.65;;;9.23;;
22849;SDS011;11591;44.792;10.358;2023-02-11T02:42:23;28.17;;;9.68;;
22849;SDS011;11591;44.792;10.358;2023-02-11T02:44:50;27.52;;;9.82;;
22849;SDS011;11591;44.792;10.358;2023-02-11T02:47:17;29.50;;;10.68;;
22849;SDS011;11591;44.792;10.358;2023-02-11T02:49:43;26.02;;;8.43;;
22849;SDS011;11591;44.792;10.358;2023-02-11T02:52:17;28.92;;;10.05;;
22849;SDS011;11591;44.792;10.358;2023-02-11T02:57:58;29.63;;;9.80;;
22849;SDS011;11591;44.792;10.358;2023-02-11T03:00:40;32.92;;;9.98;;
22849;SDS011;11591;44.792;10.358;2023-02-11T03:06:01;28.08;;;8.82;;
22849;SDS011;11591;44.792;10.358;2023-02-11T03:08:38;26.83;;;9.25;;
22849;SDS011;11591;44.792;10.358;2023-02-11T03:11:08;26.55;;;9.00;;
22849;SDS011;11591;44.792;10.358;2023-02-11T03:13:36;30.27;;;10.07;;
22849;SDS011;11591;44.792;10.358;2023-02-11T03:16:08;31.30;;;9.82;;
22849;SDS011;11591;44.792;10.358;2023-02-11T03:19:05;23.85;;;9.38;;
22849;SDS011;11591;44.792;10.358;2023-02-11T03:21:37;25.70;;;8.18;;
22849;SDS011;11591;44.792;10.358;2023-02-11T03:24:06;25.10;;;9.30;;
22849;SDS011;11591;44.792;10.358;2023-02-11T03:29:50;27.27;;;9.30;;
22849;SDS011;11591;44.792;10.358;2023-02-11T03:32:07;27.25;;;9.30;;
22849;SDS011;11591;44.792;10.358;2023-02-11T03:34:55;27.75;;;9.30;;
22849;SDS011;11591;44.792;10.358;2023-02-11T03:37:35;27.48;;;9.52;;
22849;SDS011;11591;44.792;10.358;2023-02-11T03:40:06;57.78;;;21.77;;
22849;SDS011;11591;44.792;10.358;2023-02-11T03:42:39;46.03;;;15.65;;
22849;SDS011;11591;44.792;10.358;2023-02-11T03:45:21;26.33;;;9.30;;
22849;SDS011;11591;44.792;10.358;2023-02-11T03:47:50;26.63;;;8.88;;
22849;SDS011;11591;44.792;10.358;2023-02-11T03:50:23;28.15;;;10.20;;
22849;SDS011;11591;44.792;10.358;2023-02-11T03:52:50;31.17;;;9.55;;
22849;SDS011;11591;44.792;10.358;2023-02-11T03:55:17;32.42;;;9.70;;
22849;SDS011;11591;44.792;10.358;2023-02-11T03:57:45;23.80;;;8.60;;
22849;SDS011;11591;44.792;10.358;2023-02-11T04:00:12;24.17;;;9.27;;
22849;SDS011;11591;44.792;10.358;2023-02-11T04:02:38;27.05;;;9.70;;
22849;SDS011;11591;44.792;10.358;2023-02-11T04:05:05;25.13;;;9.30;;
22849;SDS011;11591;44.792;10.358;2023-02-11T04:07:33;27.92;;;9.60;;
22849;SDS011;11591;44.792;10.358;2023-02-11T04:09:59;26.77;;;9.32;;
22849;SDS011;11591;44.792;10.358;2023-02-11T04:12:25;26.10;;;9.35;;
22849;SDS011;11591;44.792;10.358;2023-02-11T04:14:50;23.92;;;9.27;;
22849;SDS011;11591;44.792;10.358;2023-02-11T04:17:16;21.23;;;8.57;;
22849;SDS011;11591;44.792;10.358;2023-02-11T04:19:43;26.83;;;9.65;;
22849;SDS011;11591;44.792;10.358;2023-02-11T04:22:08;25.08;;;9.00;;
22849;SDS011;11591;44.792;10.358;2023-02-11T04:24:34;27.67;;;9.05;;
22849;SDS011;11591;44.792;10.358;2023-02-11T04:27:00;24.17;;;9.32;;
22849;SDS011;11591;44.792;10.358;2023-02-11T04:29:26;27.75;;;9.93;;
22849;SDS011;11591;44.792;10.358;2023-02-11T04:31:52;25.25;;;9.27;;
22849;SDS011;11591;44.792;10.358;2023-02-11T04:34:19;22.15;;;8.90;;
22849;SDS011;11591;44.792;10.358;2023-02-11T04:36:45;23.15;;;8.38;;
22849;SDS011;11591;44.792;10.358;2023-02-11T04:39:10;24.67;;;8.50;;
22849;SDS011;11591;44.792;10.358;2023-02-11T04:41:36;22.33;;;8.27;;
22849;SDS011;11591;44.792;10.358;2023-02-11T04:44:02;20.83;;;7.78;;
22849;SDS011;11591;44.792;10.358;2023-02-11T04:46:28;26.80;;;8.35;;
22849;SDS011;11591;44.792;10.358;2023-02-11T04:48:55;24.80;;;9.02;;
22849;SDS011;11591;44.792;10.358;2023-02-11T04:51:21;25.27;;;9.30;;
22849;SDS011;11591;44.792;10.358;2023-02-11T04:53:47;23.77;;;8.98;;
22849;SDS011;11591;44.792;10.358;2023-02-11T04:56:13;24.17;;;8.63;;
22849;SDS011;11591;44.792;10.358;2023-02-11T04:58:39;27.42;;;8.43;;
22849;SDS011;11591;44.792;10.358;2023-02-11T05:01:07;25.08;;;8.60;;
22849;SDS011;11591;44.792;10.358;2023-02-11T05:03:34;20.92;;;8.18;;
22849;SDS011;11591;44.792;10.358;2023-02-11T05:06:01;23.33;;;9.18;;
22849;SDS011;11591;44.792;10.358;2023-02-11T05:08:28;24.10;;;8.60;;
22849;SDS011;11591;44.792;10.358;2023-02-11T05:10:54;26.58;;;9.45;;
22849;SDS011;11591;44.792;10.358;2023-02-11T05:13:20;25.40;;;8.90;;
22849;SDS011;11591;44.792;10.358;2023-02-11T05:15:46;27.70;;;9.38;;
22849;SDS011;11591;44.792;10.358;2023-02-11T05:18:11;26.13;;;8.00;;
22849;SDS011;11591;44.792;10.358;2023-02-11T05:20:39;21.48;;;8.60;;
22849;SDS011;11591;44.792;10.358;2023-02-11T05:23:06;23.88;;;9.07;;
22849;SDS011;11591;44.792;10.358;2023-02-11T05:25:32;28.80;;;9.43;;
22849;SDS011;11591;44.792;10.358;2023-02-11T05:27:57;27.40;;;9.48;;
22849;SDS011;11591;44.792;10.358;2023-02-11T05:30:23;23.98;;;8.80;;
22849;SDS011;11591;44.792;10.358;2023-02-11T05:32:49;21.83;;;8.20;;
22849;SDS011;11591;44.792;10.358;2023-02-11T05:35:15;26.43;;;8.87;;
22849;SDS011;11591;44.792;10.358;2023-02-11T05:37:41;25.05;;;8.95;;
22849;SDS011;11591;44.792;10.358;2023-02-11T05:40:07;23.40;;;8.55;;
22849;SDS011;11591;44.792;10.358;2023-02-11T05:42:33;24.27;;;8.85;;
22849;SDS011;11591;44.792;10.358;2023-02-11T05:44:59;23.77;;;8.32;;
22849;SDS011;11591;44.792;10.358;2023-02-11T05:47:25;27.67;;;8.30;;
22849;SDS011;11591;44.792;10.358;2023-02-11T05:49:51;23.67;;;7.55;;
22849;SDS011;11591;44.792;10.358;2023-02-11T05:52:20;21.23;;;7.90;;
22849;SDS011;11591;44.792;10.358;2023-02-11T05:55:04;26.60;;;7.85;;
22849;SDS011;11591;44.792;10.358;2023-02-11T05:57:30;21.30;;;8.13;;
22849;SDS011;11591;44.792;10.358;2023-02-11T05:59:56;19.98;;;7.88;;
22849;SDS011;11591;44.792;10.358;2023-02-11T06:02:22;24.67;;;8.23;;
22849;SDS011;11591;44.792;10.358;2023-02-11T06:04:47;25.58;;;8.02;;
22849;SDS011;11591;44.792;10.358;2023-02-11T06:07:13;25.97;;;7.83;;
22849;SDS011;11591;44.792;10.358;2023-02-11T06:09:39;20.95;;;7.28;;
22849;SDS011;11591;44.792;10.358;2023-02-11T06:12:05;24.60;;;7.93;;
22849;SDS011;11591;44.792;10.358;2023-02-11T06:14:31;21.02;;;7.82;;
22849;SDS011;11591;44.792;10.358;2023-02-11T06:16:58;23.42;;;8.07;;
22849;SDS011;11591;44.792;10.358;2023-02-11T06:19:24;17.73;;;6.97;;
22849;SDS011;11591;44.792;10.358;2023-02-11T06:21:50;22.17;;;7.35;;
22849;SDS011;11591;44.792;10.358;2023-02-11T06:24:16;25.40;;;7.53;;
22849;SDS011;11591;44.792;10.358;2023-02-11T06:26:42;23.20;;;8.40;;
22849;SDS011;11591;44.792;10.358;2023-02-11T06:29:07;22.95;;;7.53;;
22849;SDS011;11591;44.792;10.358;2023-02-11T06:31:35;24.23;;;7.20;;
22849;SDS011;11591;44.792;10.358;2023-02-11T06:34:01;17.83;;;6.90;;
22849;SDS011;11591;44.792;10.358;2023-02-11T06:36:29;23.20;;;7.38;;
22849;SDS011;11591;44.792;10.358;2023-02-11T06:38:55;24.63;;;7.68;;
22849;SDS011;11591;44.792;10.358;2023-02-11T06:41:21;33.33;;;12.38;;
22849;SDS011;11591;44.792;10.358;2023-02-11T06:43:47;18.65;;;6.97;;
22849;SDS011;11591;44.792;10.358;2023-02-11T06:46:13;33.07;;;8.10;;
22849;SDS011;11591;44.792;10.358;2023-02-11T06:48:40;20.95;;;7.40;;
22849;SDS011;11591;44.792;10.358;2023-02-11T06:51:07;20.67;;;6.83;;
22849;SDS011;11591;44.792;10.358;2023-02-11T06:53:35;14.82;;;6.30;;
22849;SDS011;11591;44.792;10.358;2023-02-11T06:56:03;22.77;;;6.77;;
22849;SDS011;11591;44.792;10.358;2023-02-11T06:58:34;21.42;;;6.75;;
22849;SDS011;11591;44.792;10.358;2023-02-11T07:01:03;21.70;;;6.63;;
22849;SDS011;11591;44.792;10.358;2023-02-11T07:03:36;15.80;;;6.80;;
22849;SDS011;11591;44.792;10.358;2023-02-11T07:06:04;20.38;;;6.53;;
22849;SDS011;11591;44.792;10.358;2023-02-11T07:08:32;19.65;;;7.38;;
22849;SDS011;11591;44.792;10.358;2023-02-11T07:10:59;18.67;;;6.90;;
22849;SDS011;11591;44.792;10.358;2023-02-11T07:13:26;18.60;;;6.45;;
22849;SDS011;11591;44.792;10.358;2023-02-11T07:15:52;17.30;;;7.18;;
22849;SDS011;11591;44.792;10.358;2023-02-11T07:18:17;21.63;;;6.95;;
22849;SDS011;11591;44.792;10.358;2023-02-11T07:20:43;21.05;;;6.95;;
22849;SDS011;11591;44.792;10.358;2023-02-11T07:23:09;16.95;;;6.38;;
22849;SDS011;11591;44.792;10.358;2023-02-11T07:25:35;18.00;;;5.70;;
22849;SDS011;11591;44.792;10.358;2023-02-11T07:28:02;19.45;;;6.50;;
22849;SDS011;11591;44.792;10.358;2023-02-11T07:30:28;18.65;;;6.53;;
22849;SDS011;11591;44.792;10.358;2023-02-11T07:32:54;22.98;;;6.85;;
22849;SDS011;11591;44.792;10.358;2023-02-11T07:35:20;20.40;;;6.53;;
22849;SDS011;11591;44.792;10.358;2023-02-11T07:37:46;16.42;;;6.53;;
22849;SDS011;11591;44.792;10.358;2023-02-11T07:40:12;16.85;;;6.57;;
22849;SDS011;11591;44.792;10.358;2023-02-11T07:42:38;21.38;;;6.70;;
22849;SDS011;11591;44.792;10.358;2023-02-11T07:45:05;18.42;;;6.75;;
22849;SDS011;11591;44.792;10.358;2023-02-11T07:47:33;20.05;;;6.45;;
22849;SDS011;11591;44.792;10.358;2023-02-11T07:49:59;23.33;;;6.60;;
22849;SDS011;11591;44.792;10.358;2023-02-11T07:52:28;22.05;;;7.40;;
22849;SDS011;11591;44.792;10.358;2023-02-11T07:54:54;19.88;;;7.10;;
22849;SDS011;11591;44.792;10.358;2023-02-11T07:57:20;18.17;;;7.07;;
22849;SDS011;11591;44.792;10.358;2023-02-11T07:59:46;18.70;;;6.57;;
22849;SDS011;11591;44.792;10.358;2023-02-11T08:02:12;24.38;;;7.40;;
22849;SDS011;11591;44.792;10.358;2023-02-11T08:04:37;22.42;;;7.47;;
22849;SDS011;11591;44.792;10.358;2023-02-11T08:07:03;24.73;;;6.95;;
22849;SDS011;11591;44.792;10.358;2023-02-11T08:09:29;19.58;;;7.30;;
22849;SDS011;11591;44.792;10.358;2023-02-11T08:11:55;24.88;;;6.95;;
22849;SDS011;11591;44.792;10.358;2023-02-11T08:14:21;21.10;;;6.97;;
22849;SDS011;11591;44.792;10.358;2023-02-11T08:16:46;18.83;;;6.63;;
22849;SDS011;11591;44.792;10.358;2023-02-11T08:19:14;29.98;;;7.88;;
22849;SDS011;11591;44.792;10.358;2023-02-11T08:21:40;23.55;;;7.55;;
22849;SDS011;11591;44.792;10.358;2023-02-11T08:24:06;25.80;;;8.25;;
22849;SDS011;11591;44.792;10.358;2023-02-11T08:26:33;24.55;;;8.55;;
22849;SDS011;11591;44.792;10.358;2023-02-11T08:28:59;23.98;;;8.10;;
22849;SDS011;11591;44.792;10.358;2023-02-11T08:31:28;22.17;;;8.48;;
22849;SDS011;11591;44.792;10.358;2023-02-11T08:33:57;21.25;;;8.05;;
22849;SDS011;11591;44.792;10.358;2023-02-11T08:36:24;22.65;;;8.55;;
22849;SDS011;11591;44.792;10.358;2023-02-11T08:38:59;26.85;;;9.07;;
22849;SDS011;11591;44.792;10.358;2023-02-11T08:41:29;20.88;;;7.78;;
22849;SDS011;11591;44.792;10.358;2023-02-11T08:43:59;23.10;;;8.85;;
22849;SDS011;11591;44.792;10.358;2023-02-11T08:46:25;24.67;;;9.45;;
22849;SDS011;11591;44.792;10.358;2023-02-11T08:48:51;31.45;;;12.70;;
22849;SDS011;11591;44.792;10.358;2023-02-11T08:51:19;25.45;;;9.88;;
22849;SDS011;11591;44.792;10.358;2023-02-11T08:53:51;28.58;;;11.23;;
22849;SDS011;11591;44.792;10.358;2023-02-11T08:56:18;27.80;;;11.20;;
22849;SDS011;11591;44.792;10.358;2023-02-11T08:58:45;29.00;;;11.32;;
22849;SDS011;11591;44.792;10.358;2023-02-11T09:01:15;24.52;;;10.45;;
22849;SDS011;11591;44.792;10.358;2023-02-11T09:03:45;34.88;;;12.07;;
22849;SDS011;11591;44.792;10.358;2023-02-11T09:06:12;34.10;;;10.45;;
22849;SDS011;11591;44.792;10.358;2023-02-11T09:08:40;30.75;;;11.57;;
22849;SDS011;11591;44.792;10.358;2023-02-11T09:11:08;33.63;;;11.70;;
22849;SDS011;11591;44.792;10.358;2023-02-11T09:13:37;27.98;;;11.43;;
22849;SDS011;11591;44.792;10.358;2023-02-11T09:16:04;33.40;;;11.30;;
22849;SDS011;11591;44.792;10.358;2023-02-11T09:18:31;35.20;;;11.93;;
22849;SDS011;11591;44.792;10.358;2023-02-11T09:21:06;33.05;;;12.68;;
22849;SDS011;11591;44.792;10.358;2023-02-11T09:23:33;29.88;;;11.75;;
22849;SDS011;11591;44.792;10.358;2023-02-11T09:26:45;31.27;;;12.57;;
22849;SDS011;11591;44.792;10.358;2023-02-11T09:28:46;34.10;;;11.98;;
22849;SDS011;11591;44.792;10.358;2023-02-11T09:31:13;36.92;;;13.35;;
22849;SDS011;11591;44.792;10.358;2023-02-11T09:33:41;36.03;;;13.50;;
22849;SDS011;11591;44.792;10.358;2023-02-11T09:36:12;33.45;;;13.07;;
22849;SDS011;11591;44.792;10.358;2023-02-11T09:38:40;35.80;;;13.48;;
22849;SDS011;11591;44.792;10.358;2023-02-11T09:41:16;33.85;;;13.63;;
22849;SDS011;11591;44.792;10.358;2023-02-11T09:43:51;36.65;;;13.07;;
22849;SDS011;11591;44.792;10.358;2023-02-11T09:46:19;44.78;;;15.32;;
22849;SDS011;11591;44.792;10.358;2023-02-11T09:48:48;38.35;;;13.60;;
22849;SDS011;11591;44.792;10.358;2023-02-11T09:51:36;32.75;;;13.18;;
22849;SDS011;11591;44.792;10.358;2023-02-11T09:54:10;41.10;;;14.02;;
22849;SDS011;11591;44.792;10.358;2023-02-11T09:56:41;34.47;;;13.82;;
22849;SDS011;11591;44.792;10.358;2023-02-11T09:59:09;36.97;;;14.02;;
22849;SDS011;11591;44.792;10.358;2023-02-11T10:09:22;39.25;;;14.70;;
22849;SDS011;11591;44.792;10.358;2023-02-11T10:12:14;34.42;;;13.38;;
22849;SDS011;11591;44.792;10.358;2023-02-11T10:25:57;42.92;;;14.40;;
22849;SDS011;11591;44.792;10.358;2023-02-11T10:28:29;34.50;;;14.73;;
22849;SDS011;11591;44.792;10.358;2023-02-11T10:30:58;36.78;;;14.55;;
22849;SDS011;11591;44.792;10.358;2023-02-11T10:33:42;40.15;;;15.82;;
22849;SDS011;11591;44.792;10.358;2023-02-11T10:36:30;39.35;;;16.27;;
22849;SDS011;11591;44.792;10.358;2023-02-11T10:38:59;43.40;;;15.68;;
22849;SDS011;11591;44.792;10.358;2023-02-11T10:41:36;34.58;;;15.32;;
22849;SDS011;11591;44.792;10.358;2023-02-11T10:44:06;38.58;;;15.68;;
22849;SDS011;11591;44.792;10.358;2023-02-11T10:46:33;38.45;;;14.80;;
22849;SDS011;11591;44.792;10.358;2023-02-11T10:49:04;36.35;;;15.18;;
22849;SDS011;11591;44.792;10.358;2023-02-11T10:51:31;36.55;;;15.57;;
22849;SDS011;11591;44.792;10.358;2023-02-11T10:56:35;36.03;;;15.27;;
22849;SDS011;11591;44.792;10.358;2023-02-11T11:02:03;40.72;;;16.10;;
22849;SDS011;11591;44.792;10.358;2023-02-11T11:04:44;51.63;;;18.00;;
22849;SDS011;11591;44.792;10.358;2023-02-11T11:07:32;48.08;;;18.33;;
22849;SDS011;11591;44.792;10.358;2023-02-11T11:12:31;46.20;;;17.02;;
22849;SDS011;11591;44.792;10.358;2023-02-11T11:17:35;43.45;;;17.70;;
22849;SDS011;11591;44.792;10.358;2023-02-11T11:22:46;40.28;;;16.52;;
22849;SDS011;11591;44.792;10.358;2023-02-11T11:25:25;45.47;;;17.58;;
22849;SDS011;11591;44.792;10.358;2023-02-11T11:27:57;39.50;;;16.67;;
22849;SDS011;11591;44.792;10.358;2023-02-11T11:30:40;38.08;;;16.30;;
22849;SDS011;11591;44.792;10.358;2023-02-11T11:33:40;48.88;;;17.92;;
22849;SDS011;11591;44.792;10.358;2023-02-11T11:36:01;41.88;;;17.00;;
22849;SDS011;11591;44.792;10.358;2023-02-11T11:38:30;46.53;;;17.15;;
22849;SDS011;11591;44.792;10.358;2023-02-11T11:41:17;45.03;;;16.98;;
22849;SDS011;11591;44.792;10.358;2023-02-11T11:46:44;44.88;;;17.48;;
22849;SDS011;11591;44.792;10.358;2023-02-11T11:49:16;44.40;;;17.08;;
22849;SDS011;11591;44.792;10.358;2023-02-11T11:51:49;45.45;;;18.15;;
22849;SDS011;11591;44.792;10.358;2023-02-11T11:54:20;49.53;;;17.83;;
22849;SDS011;11591;44.792;10.358;2023-02-11T11:56:57;42.08;;;16.80;;
22849;SDS011;11591;44.792;10.358;2023-02-11T11:59:26;41.13;;;17.92;;
22849;SDS011;11591;44.792;10.358;2023-02-11T12:02:09;41.92;;;18.15;;
22849;SDS011;11591;44.792;10.358;2023-02-11T12:07:38;51.38;;;20.58;;
22849;SDS011;11591;44.792;10.358;2023-02-11T12:10:38;43.25;;;17.60;;
22849;SDS011;11591;44.792;10.358;2023-02-11T12:13:15;40.38;;;17.90;;
22849;SDS011;11591;44.792;10.358;2023-02-11T12:21:21;50.88;;;19.23;;
22849;SDS011;11591;44.792;10.358;2023-02-11T12:27:12;46.13;;;19.40;;
22849;SDS011;11591;44.792;10.358;2023-02-11T12:29:41;46.22;;;18.92;;
22849;SDS011;11591;44.792;10.358;2023-02-11T12:32:27;45.17;;;19.00;;
22849;SDS011;11591;44.792;10.358;2023-02-11T12:43:21;46.33;;;18.77;;
22849;SDS011;11591;44.792;10.358;2023-02-11T12:45:57;42.58;;;17.75;;
22849;SDS011;11591;44.792;10.358;2023-02-11T12:54:28;50.70;;;17.30;;
22849;SDS011;11591;44.792;10.358;2023-02-11T12:57:17;46.03;;;17.90;;
22849;SDS011;11591;44.792;10.358;2023-02-11T13:00:02;37.75;;;16.20;;
22849;SDS011;11591;44.792;10.358;2023-02-11T13:02:43;33.42;;;14.48;;
22849;SDS011;11591;44.792;10.358;2023-02-11T13:07:53;34.83;;;16.13;;
22849;SDS011;11591;44.792;10.358;2023-02-11T13:10:31;36.40;;;16.90;;
22849;SDS011;11591;44.792;10.358;2023-02-11T13:12:59;39.15;;;17.65;;
22849;SDS011;11591;44.792;10.358;2023-02-11T13:15:42;40.90;;;17.60;;
22849;SDS011;11591;44.792;10.358;2023-02-11T13:23:46;37.80;;;16.80;;
22849;SDS011;11591;44.792;10.358;2023-02-11T13:28:47;43.63;;;18.40;;
22849;SDS011;11591;44.792;10.358;2023-02-11T13:31:19;40.40;;;18.50;;
22849;SDS011;11591;44.792;10.358;2023-02-11T13:33:45;42.22;;;16.65;;
22849;SDS011;11591;44.792;10.358;2023-02-11T13:36:17;42.15;;;18.35;;
22849;SDS011;11591;44.792;10.358;2023-02-11T13:38:52;38.17;;;17.20;;
22849;SDS011;11591;44.792;10.358;2023-02-11T13:43:58;44.42;;;18.45;;
22849;SDS011;11591;44.792;10.358;2023-02-11T13:46:47;37.47;;;17.40;;
22849;SDS011;11591;44.792;10.358;2023-02-11T13:49:23;44.05;;;18.00;;
22849;SDS011;11591;44.792;10.358;2023-02-11T13:51:54;45.38;;;18.52;;
22849;SDS011;11591;44.792;10.358;2023-02-11T13:54:25;47.20;;;18.55;;
22849;SDS011;11591;44.792;10.358;2023-02-11T13:59:57;46.92;;;19.30;;
22849;SDS011;11591;44.792;10.358;2023-02-11T14:02:32;53.05;;;20.33;;
22849;SDS011;11591;44.792;10.358;2023-02-11T14:10:58;43.97;;;19.40;;
22849;SDS011;11591;44.792;10.358;2023-02-11T14:13:34;50.90;;;21.35;;
22849;SDS011;11591;44.792;10.358;2023-02-11T14:16:06;42.03;;;19.48;;
22849;SDS011;11591;44.792;10.358;2023-02-11T14:21:31;44.70;;;20.75;;
22849;SDS011;11591;44.792;10.358;2023-02-11T14:26:47;45.90;;;21.55;;
22849;SDS011;11591;44.792;10.358;2023-02-11T14:29:18;43.78;;;19.60;;
22849;SDS011;11591;44.792;10.358;2023-02-11T14:34:56;46.25;;;21.23;;
22849;SDS011;11591;44.792;10.358;2023-02-11T14:37:37;45.88;;;20.83;;
22849;SDS011;11591;44.792;10.358;2023-02-11T14:40:27;42.60;;;19.33;;
22849;SDS011;11591;44.792;10.358;2023-02-11T14:43:02;40.80;;;20.40;;
22849;SDS011;11591;44.792;10.358;2023-02-11T14:45:37;46.50;;;20.75;;
22849;SDS011;11591;44.792;10.358;2023-02-11T14:48:07;43.53;;;21.92;;
22849;SDS011;11591;44.792;10.358;2023-02-11T14:50:50;42.10;;;20.92;;
22849;SDS011;11591;44.792;10.358;2023-02-11T14:53:29;40.03;;;20.95;;
22849;SDS011;11591;44.792;10.358;2023-02-11T14:55:56;45.97;;;21.70;;
22849;SDS011;11591;44.792;10.358;2023-02-11T15:00:59;42.17;;;21.65;;
22849;SDS011;11591;44.792;10.358;2023-02-11T15:06:06;44.28;;;21.38;;
22849;SDS011;11591;44.792;10.358;2023-02-11T15:08:41;43.35;;;21.67;;
22849;SDS011;11591;44.792;10.358;2023-02-11T15:11:11;44.95;;;22.10;;
22849;SDS011;11591;44.792;10.358;2023-02-11T15:13:39;42.45;;;21.77;;
22849;SDS011;11591;44.792;10.358;2023-02-11T15:16:11;45.08;;;23.20;;
22849;SDS011;11591;44.792;10.358;2023-02-11T15:18:43;42.63;;;21.83;;
22849;SDS011;11591;44.792;10.358;2023-02-11T15:21:18;44.83;;;23.17;;
22849;SDS011;11591;44.792;10.358;2023-02-11T15:23:53;39.85;;;22.35;;
22849;SDS011;11591;44.792;10.358;2023-02-11T15:26:27;41.92;;;22.35;;
22849;SDS011;11591;44.792;10.358;2023-02-11T15:28:54;45.40;;;23.33;;
22849;SDS011;11591;44.792;10.358;2023-02-11T15:31:21;42.40;;;22.40;;
22849;SDS011;11591;44.792;10.358;2023-02-11T15:33:49;47.65;;;23.88;;
22849;SDS011;11591;44.792;10.358;2023-02-11T15:36:16;47.88;;;22.50;;
22849;SDS011;11591;44.792;10.358;2023-02-11T15:38:43;48.05;;;24.77;;
22849;SDS011;11591;44.792;10.358;2023-02-11T15:43:58;45.17;;;23.48;;
22849;SDS011;11591;44.792;10.358;2023-02-11T15:46:24;46.50;;;22.70;;
22849;SDS011;11591;44.792;10.358;2023-02-11T15:48:59;47.75;;;23.05;;
22849;SDS011;11591;44.792;10.358;2023-02-11T15:53:57;47.80;;;24.08;;
22849;SDS011;11591;44.792;10.358;2023-02-11T15:56:26;48.72;;;24.65;;
22849;SDS011;11591;44.792;10.358;2023-02-11T15:58:58;49.08;;;23.52;;
22849;SDS011;11591;44.792;10.358;2023-02-11T16:01:32;57.30;;;27.20;;
22849;SDS011;11591;44.792;10.358;2023-02-11T16:04:01;55.50;;;25.70;;
22849;SDS011;11591;44.792;10.358;2023-02-11T16:06:35;48.58;;;24.83;;
22849;SDS011;11591;44.792;10.358;2023-02-11T16:11:56;52.30;;;25.25;;
22849;SDS011;11591;44.792;10.358;2023-02-11T16:19:23;51.13;;;25.55;;
22849;SDS011;11591;44.792;10.358;2023-02-11T16:21:51;51.20;;;26.08;;
22849;SDS011;11591;44.792;10.358;2023-02-11T16:24:29;50.20;;;24.85;;
22849;SDS011;11591;44.792;10.358;2023-02-11T16:27:01;61.00;;;29.10;;
22849;SDS011;11591;44.792;10.358;2023-02-11T16:29:32;58.17;;;28.17;;
22849;SDS011;11591;44.792;10.358;2023-02-11T16:32:07;53.42;;;24.70;;
22849;SDS011;11591;44.792;10.358;2023-02-11T16:34:39;48.85;;;23.27;;
22849;SDS011;11591;44.792;10.358;2023-02-11T16:37:06;52.42;;;25.13;;
22849;SDS011;11591;44.792;10.358;2023-02-11T16:39:32;50.72;;;24.23;;
22849;SDS011;11591;44.792;10.358;2023-02-11T16:41:58;55.72;;;24.58;;